createdAt,value
2023-02-08T00:01:00.131Z,0.01
2023-02-08T00:03:29.163Z,-0.01
2023-02-08T00:05:56.552Z,0.27
2023-02-08T00:08:23.879Z,0.12
2023-02-08T00:10:51.220Z,0.26
2023-02-08T00:13:18.807Z,0.37
2023-02-08T00:15:46.778Z,0.32
2023-02-08T00:18:14.794Z,0.23
2023-02-08T00:20:46.788Z,0.32
2023-02-08T00:23:15.044Z,0.13
2023-02-08T00:25:42.748Z,0.18
2023-02-08T00:28:14.061Z,0.04
2023-02-08T00:30:43.366Z,-0.01
2023-02-08T00:33:12.157Z,0.02
2023-02-08T00:35:41.137Z,0.01
2023-02-08T00:38:08.616Z,0.02
2023-02-08T00:40:36.234Z,-0.08
2023-02-08T00:43:03.892Z,-0.03
2023-02-08T00:45:33.195Z,0.06
2023-02-08T00:48:00.597Z,0.12
2023-02-08T00:50:27.953Z,0.04
2023-02-08T00:52:55.341Z,0.15
2023-02-08T00:55:22.672Z,0.16
2023-02-08T00:57:50.038Z,0.15
2023-02-08T01:00:17.620Z,0.11
2023-02-08T01:02:44.985Z,0.22
2023-02-08T01:05:12.411Z,0.22
2023-02-08T01:07:40.684Z,0.26
2023-02-08T01:10:12.508Z,0.23
2023-02-08T01:12:41.489Z,0.25
2023-02-08T01:15:09.480Z,0.32
2023-02-08T01:17:36.985Z,0.11
2023-02-08T01:20:04.627Z,0.12
2023-02-08T01:22:32.055Z,0.17
2023-02-08T01:25:01.259Z,0.02
2023-02-08T01:27:28.672Z,0.06
2023-02-08T01:29:56.084Z,0.03
2023-02-08T01:32:23.563Z,0.05
2023-02-08T01:34:50.852Z,0.07
2023-02-08T01:37:18.126Z,-0.01
2023-02-08T01:39:48.064Z,-0.17
2023-02-08T01:42:17.222Z,-0.22
2023-02-08T01:45:33.398Z,-0.41
2023-02-08T01:48:10.040Z,-0.21
2023-02-08T01:51:04.405Z,-0.17
2023-02-08T01:53:34.723Z,-0.17
2023-02-08T01:56:09.684Z,-0.18
2023-02-08T01:58:42.575Z,-0.16
2023-02-08T02:01:11.774Z,-0.25
2023-02-08T02:03:40.415Z,-0.08
2023-02-08T02:06:19.717Z,0.22
2023-02-08T02:09:26.897Z,0.21
2023-02-08T02:11:56.021Z,0.11
2023-02-08T02:14:25.736Z,0.09
2023-02-08T02:16:53.159Z,0.17
2023-02-08T02:19:39.331Z,0.55
2023-02-08T02:22:19.547Z,0.69
2023-02-08T02:25:05.690Z,0.81
2023-02-08T02:27:51.242Z,0.91
2023-02-08T02:30:40.757Z,0.98
2023-02-08T02:33:36.810Z,1.10
2023-02-08T02:36:57.278Z,1.13
2023-02-08T02:39:39.087Z,1.04
2023-02-08T02:42:40.920Z,1.15
2023-02-08T02:45:10.977Z,1.20
2023-02-08T02:47:49.799Z,1.17
2023-02-08T02:50:25.212Z,1.20
2023-02-08T02:53:18.175Z,1.36
2023-02-08T02:55:51.412Z,1.34
2023-02-08T02:58:22.020Z,1.29
2023-02-08T03:00:54.991Z,1.31
2023-02-08T03:03:26.060Z,1.37
2023-02-08T03:05:59.122Z,1.36
2023-02-08T03:08:29.144Z,1.39
2023-02-08T03:11:26.752Z,1.45
2023-02-08T03:14:12.368Z,1.39
2023-02-08T03:16:58.648Z,1.34
2023-02-08T03:19:56.686Z,1.42
2023-02-08T03:22:29.001Z,1.35
2023-02-08T03:25:09.840Z,1.24
2023-02-08T03:27:47.317Z,1.23
2023-02-08T03:30:31.379Z,1.16
2023-02-08T03:33:08.974Z,0.95
2023-02-08T03:35:52.544Z,0.83
2023-02-08T03:38:27.541Z,0.94
2023-02-08T03:40:58.020Z,0.95
2023-02-08T03:43:29.971Z,1.00
2023-02-08T03:46:08.894Z,0.95
2023-02-08T03:48:38.523Z,0.84
2023-02-08T03:51:07.876Z,0.76
2023-02-08T03:53:40.494Z,0.71
2023-02-08T03:56:20.348Z,0.75
2023-02-08T03:58:59.526Z,0.63
2023-02-08T04:01:32.144Z,0.54
2023-02-08T04:04:01.265Z,0.45
2023-02-08T04:06:28.624Z,0.27
2023-02-08T04:08:56.137Z,0.16
2023-02-08T04:11:23.596Z,-0.13
2023-02-08T04:13:50.926Z,-0.03
2023-02-08T04:16:18.261Z,-0.10
2023-02-08T04:18:45.632Z,-0.16
2023-02-08T04:21:12.976Z,-0.25
2023-02-08T04:23:40.288Z,-0.24
2023-02-08T04:26:08.899Z,-0.06
2023-02-08T04:28:36.364Z,0.03
2023-02-08T04:31:03.874Z,0.08
2023-02-08T04:33:31.390Z,0.34
2023-02-08T04:35:58.811Z,0.26
2023-02-08T04:38:26.164Z,0.27
2023-02-08T04:40:53.713Z,0.25
2023-02-08T04:43:21.090Z,0.28
2023-02-08T04:45:50.764Z,0.49
2023-02-08T04:48:19.301Z,0.41
2023-02-08T04:50:46.670Z,0.08
2023-02-08T04:53:14.067Z,0.07
2023-02-08T04:55:41.436Z,-0.05
2023-02-08T04:58:08.791Z,0.02
2023-02-08T05:00:36.181Z,-0.33
2023-02-08T05:03:04.628Z,-0.41
2023-02-08T05:05:32.728Z,-0.60
2023-02-08T05:08:00.107Z,-0.68
2023-02-08T05:10:27.991Z,-0.81
2023-02-08T05:12:55.495Z,-0.79
2023-02-08T05:15:22.846Z,-0.93
2023-02-08T05:17:50.381Z,-1.02
2023-02-08T05:20:18.127Z,-1.20
2023-02-08T05:22:45.515Z,-1.20
2023-02-08T05:25:12.939Z,-1.15
2023-02-08T05:27:40.268Z,-1.17
2023-02-08T05:30:08.029Z,-1.29
2023-02-08T05:32:35.409Z,-1.30
2023-02-08T05:35:02.808Z,-1.13
2023-02-08T05:37:30.245Z,-1.03
2023-02-08T05:39:57.632Z,-1.17
2023-02-08T05:42:25.251Z,-0.90
2023-02-08T05:44:52.645Z,-0.96
2023-02-08T05:47:19.980Z,-0.83
2023-02-08T05:49:47.307Z,-1.06
2023-02-08T05:52:14.777Z,-1.32
2023-02-08T05:54:42.199Z,-1.38
2023-02-08T05:57:09.551Z,-1.30
2023-02-08T05:59:36.883Z,-1.03
2023-02-08T06:02:04.212Z,-1.34
2023-02-08T06:04:31.569Z,-1.41
2023-02-08T06:06:59.021Z,-1.23
2023-02-08T06:09:26.533Z,-1.40
2023-02-08T06:11:53.847Z,-1.27
2023-02-08T06:14:21.239Z,-1.49
2023-02-08T06:16:48.620Z,-1.54
2023-02-08T06:19:16.102Z,-1.49
2023-02-08T06:21:43.519Z,-1.60
2023-02-08T06:24:11.570Z,-1.65
2023-02-08T06:26:39.063Z,-1.52
2023-02-08T06:29:06.386Z,-1.33
2023-02-08T06:31:33.918Z,-1.26
2023-02-08T06:34:01.298Z,-1.29
2023-02-08T06:36:28.717Z,-1.53
2023-02-08T06:38:56.067Z,-1.67
2023-02-08T06:41:23.397Z,-1.49
2023-02-08T06:43:50.792Z,-1.49
2023-02-08T06:46:18.129Z,-1.29
2023-02-08T06:48:45.406Z,-1.17
2023-02-08T06:51:12.785Z,-1.01
2023-02-08T06:53:40.159Z,-1.10
2023-02-08T06:56:07.693Z,-1.02
2023-02-08T06:58:35.019Z,-0.88
2023-02-08T07:01:02.489Z,-0.99
2023-02-08T07:03:29.908Z,-0.70
2023-02-08T07:06:05.778Z,-0.56
2023-02-08T07:08:34.240Z,-0.74
2023-02-08T07:11:20.916Z,-0.55
2023-02-08T07:13:50.120Z,-0.61
2023-02-08T07:16:19.047Z,-0.64
2023-02-08T07:18:46.856Z,-0.54
2023-02-08T07:21:14.405Z,-0.47
2023-02-08T07:23:41.795Z,-0.42
2023-02-08T07:26:12.131Z,-0.43
2023-02-08T07:28:40.849Z,-0.54
2023-02-08T07:31:10.631Z,-0.56
2023-02-08T07:33:38.733Z,-0.48
2023-02-08T07:36:07.664Z,-0.37
2023-02-08T07:38:35.349Z,-0.31
2023-02-08T07:41:08.191Z,-0.20
2023-02-08T07:43:36.460Z,-0.16
2023-02-08T07:46:08.572Z,-0.07
2023-02-08T07:48:38.520Z,-0.08
2023-02-08T07:51:08.584Z,0.01
2023-02-08T07:53:36.445Z,0.06
2023-02-08T07:56:04.127Z,-0.04
2023-02-08T07:58:31.385Z,0.15
2023-02-08T08:01:00.535Z,0.16
2023-02-08T08:03:30.430Z,0.11
2023-02-08T08:05:57.744Z,0.20
2023-02-08T08:08:25.026Z,0.41
2023-02-08T08:10:52.544Z,0.48
2023-02-08T08:13:19.926Z,0.64
2023-02-08T08:15:47.311Z,0.70
2023-02-08T08:18:15.002Z,0.81
2023-02-08T08:20:42.643Z,0.92
2023-02-08T08:23:10.120Z,0.99
2023-02-08T08:25:37.830Z,1.04
2023-02-08T08:28:05.551Z,1.25
2023-02-08T08:30:33.000Z,1.35
2023-02-08T08:33:00.498Z,1.73
2023-02-08T08:35:27.848Z,3.63
2023-02-08T08:37:55.223Z,5.99
2023-02-08T08:40:24.319Z,6.30
2023-02-08T08:42:52.441Z,6.54
2023-02-08T08:45:20.089Z,7.27
2023-02-08T08:47:47.483Z,8.47
2023-02-08T08:50:15.007Z,8.82
2023-02-08T08:52:42.821Z,8.28
2023-02-08T08:55:10.240Z,8.09
2023-02-08T08:57:37.552Z,8.54
2023-02-08T09:00:05.247Z,8.15
2023-02-08T09:02:32.616Z,8.23
2023-02-08T09:05:00.431Z,8.38
2023-02-08T09:07:27.747Z,7.96
2023-02-08T09:09:55.105Z,6.82
2023-02-08T09:12:22.940Z,5.85
2023-02-08T09:14:50.396Z,4.99
2023-02-08T09:17:17.905Z,4.36
2023-02-08T09:19:47.306Z,4.08
2023-02-08T09:22:14.723Z,3.88
2023-02-08T09:24:42.270Z,3.72
2023-02-08T09:27:09.658Z,3.69
2023-02-08T09:29:37.198Z,3.84
2023-02-08T09:32:04.663Z,3.85
2023-02-08T09:34:32.039Z,3.87
2023-02-08T09:36:59.390Z,3.57
2023-02-08T09:39:26.850Z,3.49
2023-02-08T09:42:13.283Z,3.48
2023-02-08T09:44:56.108Z,3.43
2023-02-08T09:47:36.299Z,3.53
2023-02-08T09:50:13.050Z,3.50
2023-02-08T09:52:58.134Z,3.55
2023-02-08T09:55:51.491Z,3.56
2023-02-08T09:58:27.670Z,3.57
2023-02-08T10:00:56.041Z,3.65
2023-02-08T10:03:32.558Z,3.85
2023-02-08T10:06:00.760Z,3.83
2023-02-08T10:08:35.204Z,3.75
2023-02-08T10:11:28.856Z,3.75
2023-02-08T10:14:18.033Z,3.84
2023-02-08T10:17:14.787Z,3.84
2023-02-08T10:20:08.271Z,3.65
2023-02-08T10:22:44.835Z,3.83
2023-02-08T10:25:46.832Z,3.78
2023-02-08T10:28:29.187Z,3.88
2023-02-08T10:31:20.687Z,4.02
2023-02-08T10:33:52.191Z,3.83
2023-02-08T10:36:29.678Z,3.82
2023-02-08T10:38:59.019Z,3.80
2023-02-08T10:41:35.635Z,3.85
2023-02-08T10:44:28.131Z,3.98
2023-02-08T10:47:17.028Z,3.96
2023-02-08T10:50:06.824Z,4.10
2023-02-08T10:52:34.252Z,3.94
2023-02-08T10:55:02.377Z,4.05
2023-02-08T10:57:34.613Z,3.88
2023-02-08T11:00:06.956Z,3.85
2023-02-08T11:02:40.792Z,3.72
2023-02-08T11:05:09.887Z,3.84
2023-02-08T11:07:37.511Z,4.03
2023-02-08T11:10:19.939Z,3.90
2023-02-08T11:13:06.888Z,3.78
2023-02-08T11:15:48.383Z,3.79
2023-02-08T11:18:26.407Z,3.91
2023-02-08T11:20:57.371Z,4.07
2023-02-08T11:23:29.048Z,4.21
2023-02-08T11:26:15.317Z,4.23
2023-02-08T11:28:43.725Z,4.28
2023-02-08T11:31:19.622Z,4.36
2023-02-08T11:34:11.144Z,4.30
2023-02-08T11:36:46.955Z,4.31
2023-02-08T11:39:50.123Z,4.44
2023-02-08T11:42:27.906Z,4.28
2023-02-08T11:44:57.257Z,4.31
2023-02-08T11:47:27.782Z,4.30
2023-02-08T11:49:58.194Z,4.25
2023-02-08T11:52:30.693Z,4.22
2023-02-08T11:55:24.143Z,4.41
2023-02-08T11:58:00.207Z,4.66
2023-02-08T12:00:35.227Z,4.75
2023-02-08T12:03:13.282Z,4.64
2023-02-08T12:06:02.093Z,4.59
2023-02-08T12:09:00.202Z,4.48
2023-02-08T12:11:48.301Z,4.46
2023-02-08T12:14:39.287Z,4.50
2023-02-08T12:17:30.313Z,4.53
2023-02-08T12:20:03.475Z,4.55
2023-02-08T12:22:31.643Z,4.52
2023-02-08T12:25:10.444Z,4.47
2023-02-08T12:27:37.741Z,4.54
2023-02-08T12:30:39.552Z,4.54
2023-02-08T12:33:17.181Z,4.56
2023-02-08T12:36:29.311Z,4.58
2023-02-08T12:39:26.148Z,4.52
2023-02-08T12:42:02.585Z,4.60
2023-02-08T12:45:01.386Z,4.55
2023-02-08T12:47:35.438Z,4.65
2023-02-08T12:50:34.990Z,4.55
2023-02-08T12:53:09.008Z,4.54
2023-02-08T12:55:39.115Z,4.64
2023-02-08T12:58:32.390Z,4.74
2023-02-08T13:01:13.837Z,4.75
2023-02-08T13:03:52.819Z,4.71
2023-02-08T13:06:33.227Z,4.65
2023-02-08T13:09:06.054Z,4.82
2023-02-08T13:11:40.168Z,4.60
2023-02-08T13:14:19.804Z,4.60
2023-02-08T13:16:52.167Z,4.63
2023-02-08T13:19:37.230Z,4.68
2023-02-08T13:22:05.508Z,4.82
2023-02-08T13:24:42.261Z,4.85
2023-02-08T13:27:18.077Z,4.81
2023-02-08T13:29:47.592Z,4.74
2023-02-08T13:32:23.253Z,4.57
2023-02-08T13:34:55.497Z,4.60
2023-02-08T13:37:31.459Z,4.62
2023-02-08T13:40:03.338Z,4.68
2023-02-08T13:42:36.874Z,4.76
2023-02-08T13:45:06.389Z,4.67
2023-02-08T13:47:48.536Z,4.63
2023-02-08T13:50:34.295Z,4.68
2023-02-08T13:53:02.780Z,4.82
2023-02-08T13:55:48.051Z,4.88
2023-02-08T13:58:15.368Z,4.65
2023-02-08T14:00:57.692Z,4.77
2023-02-08T14:03:29.941Z,4.71
2023-02-08T14:06:06.201Z,4.76
2023-02-08T14:08:44.119Z,4.87
2023-02-08T14:11:23.564Z,4.82
2023-02-08T14:13:59.734Z,4.81
2023-02-08T14:16:32.907Z,4.69
2023-02-08T14:19:06.815Z,4.67
2023-02-08T14:21:38.795Z,4.76
2023-02-08T14:24:22.675Z,4.63
2023-02-08T14:26:51.602Z,4.60
2023-02-08T14:29:24.355Z,4.42
2023-02-08T14:31:52.750Z,4.46
2023-02-08T14:34:26.426Z,4.48
2023-02-08T14:37:03.505Z,4.49
2023-02-08T14:39:35.496Z,4.44
2023-02-08T14:42:09.839Z,4.43
2023-02-08T14:44:41.733Z,4.44
2023-02-08T14:47:24.150Z,4.42
2023-02-08T14:50:16.607Z,4.40
2023-02-08T14:52:59.117Z,4.44
2023-02-08T14:55:32.317Z,4.34
2023-02-08T14:58:02.110Z,4.27
2023-02-08T15:00:35.050Z,4.28
2023-02-08T15:03:05.427Z,4.35
2023-02-08T15:05:44.516Z,4.29
2023-02-08T15:08:13.183Z,4.32
2023-02-08T15:10:47.274Z,4.28
2023-02-08T15:13:22.073Z,4.19
2023-02-08T15:15:53.867Z,4.21
2023-02-08T15:18:31.442Z,4.22
2023-02-08T15:21:15.343Z,4.24
2023-02-08T15:23:42.865Z,4.26
2023-02-08T15:26:22.867Z,4.23
2023-02-08T15:28:50.219Z,4.24
2023-02-08T15:31:21.235Z,4.22
2023-02-08T15:33:49.321Z,4.24
2023-02-08T15:36:22.484Z,4.22
2023-02-08T15:38:49.852Z,4.13
2023-02-08T15:41:32.368Z,4.17
2023-02-08T15:44:22.648Z,4.17
2023-02-08T15:46:54.974Z,4.07
2023-02-08T15:49:34.098Z,4.09
2023-02-08T15:52:02.784Z,4.16
2023-02-08T15:54:30.562Z,4.09
2023-02-08T15:57:07.339Z,4.02
2023-02-08T15:59:39.238Z,4.07
2023-02-08T16:02:28.005Z,4.05
2023-02-08T16:04:57.193Z,4.11
2023-02-08T16:07:39.204Z,4.13
2023-02-08T16:10:10.124Z,4.06
2023-02-08T16:12:37.708Z,4.10
2023-02-08T16:15:05.304Z,3.93
2023-02-08T16:17:37.130Z,4.01
2023-02-08T16:20:33.980Z,3.92
2023-02-08T16:23:31.291Z,3.80
2023-02-08T16:26:11.412Z,3.77
2023-02-08T16:28:39.378Z,3.74
2023-02-08T16:31:08.104Z,3.70
2023-02-08T16:33:37.371Z,3.58
2023-02-08T16:36:05.227Z,3.56
2023-02-08T16:38:34.312Z,3.53
2023-02-08T16:41:13.265Z,3.47
2023-02-08T16:43:46.404Z,3.42
2023-02-08T16:46:21.452Z,3.35
2023-02-08T16:48:50.071Z,3.46
2023-02-08T16:51:21.959Z,3.36
2023-02-08T16:53:52.061Z,3.33
2023-02-08T16:56:19.941Z,3.35
2023-02-08T16:58:47.428Z,3.22
2023-02-08T17:01:15.583Z,3.29
2023-02-08T17:03:43.178Z,3.30
2023-02-08T17:06:22.898Z,3.23
2023-02-08T17:08:50.781Z,3.23
2023-02-08T17:11:18.394Z,3.06
2023-02-08T17:13:45.866Z,3.19
2023-02-08T17:16:19.134Z,3.12
2023-02-08T17:18:48.247Z,3.02
2023-02-08T17:21:16.878Z,3.10
2023-02-08T17:23:45.566Z,3.02
2023-02-08T17:26:20.411Z,2.92
2023-02-08T17:28:50.707Z,2.90
2023-02-08T17:31:19.096Z,2.78
2023-02-08T17:33:50.291Z,2.82
2023-02-08T17:36:18.822Z,2.79
2023-02-08T17:38:47.436Z,2.70
2023-02-08T17:41:20.789Z,2.68
2023-02-08T17:43:54.548Z,2.67
2023-02-08T17:46:25.606Z,2.67
2023-02-08T17:48:53.711Z,2.58
2023-02-08T17:51:24.583Z,2.51
2023-02-08T17:53:52.373Z,2.52
2023-02-08T17:56:22.960Z,2.51
2023-02-08T17:58:53.651Z,2.53
2023-02-08T18:01:26.350Z,2.46
2023-02-08T18:03:59.824Z,2.54
2023-02-08T18:06:27.582Z,2.55
2023-02-08T18:08:55.541Z,2.59
2023-02-08T18:11:24.116Z,2.51
2023-02-08T18:13:53.899Z,2.41
2023-02-08T18:16:24.685Z,2.48
2023-02-08T18:18:56.072Z,2.37
2023-02-08T18:21:25.846Z,2.36
2023-02-08T18:23:55.318Z,2.24
2023-02-08T18:26:24.315Z,2.30
2023-02-08T18:28:52.433Z,2.19
2023-02-08T18:31:21.307Z,2.17
2023-02-08T18:33:50.217Z,2.16
2023-02-08T18:36:19.017Z,2.25
2023-02-08T18:38:47.934Z,2.24
2023-02-08T18:41:21.377Z,2.24
2023-02-08T18:43:49.879Z,2.26
2023-02-08T18:46:19.765Z,2.21
2023-02-08T18:48:47.939Z,2.19
2023-02-08T18:51:19.777Z,2.25
2023-02-08T18:53:52.697Z,2.16
2023-02-08T18:56:24.008Z,2.17
2023-02-08T18:58:52.896Z,2.11
2023-02-08T19:01:23.612Z,2.23
2023-02-08T19:03:54.475Z,2.24
2023-02-08T19:06:25.088Z,2.18
2023-02-08T19:08:55.004Z,2.16
2023-02-08T19:11:25.350Z,2.07
2023-02-08T19:13:55.350Z,2.04
2023-02-08T19:16:24.721Z,1.98
2023-02-08T19:19:01.687Z,1.94
2023-02-08T19:21:30.896Z,2.00
2023-02-08T19:24:00.619Z,2.09
2023-02-08T19:26:31.207Z,2.06
2023-02-08T19:29:03.106Z,2.04
2023-02-08T19:31:30.979Z,1.94
2023-02-08T19:34:01.003Z,1.98
2023-02-08T19:36:42.047Z,1.92
2023-02-08T19:39:13.596Z,2.01
2023-02-08T19:41:41.682Z,1.93
2023-02-08T19:44:12.507Z,1.97
2023-02-08T19:46:40.212Z,1.93
2023-02-08T19:49:07.843Z,1.87
2023-02-08T19:51:37.198Z,1.86
2023-02-08T19:54:08.513Z,1.80
2023-02-08T19:56:36.614Z,1.79
2023-02-08T19:59:05.844Z,1.78
2023-02-08T20:01:35.467Z,1.73
2023-02-08T20:04:04.564Z,1.81
2023-02-08T20:06:35.097Z,1.82
2023-02-08T20:09:04.669Z,1.70
2023-02-08T20:11:37.096Z,1.76
2023-02-08T20:14:07.039Z,1.72
2023-02-08T20:16:34.794Z,1.75
2023-02-08T20:19:03.157Z,1.80
2023-02-08T20:21:30.577Z,1.74
2023-02-08T20:23:57.904Z,1.76
2023-02-08T20:26:27.470Z,1.76
2023-02-08T20:28:58.122Z,1.81
2023-02-08T20:31:31.594Z,1.76
2023-02-08T20:34:02.357Z,1.72
2023-02-08T20:36:40.575Z,1.72
2023-02-08T20:39:12.004Z,1.67
2023-02-08T20:41:44.271Z,1.72
2023-02-08T20:44:12.804Z,1.65
2023-02-08T20:46:41.259Z,1.73
2023-02-08T20:49:11.912Z,1.62
2023-02-08T20:51:39.371Z,1.69
2023-02-08T20:54:06.694Z,1.59
2023-02-08T20:56:36.263Z,1.63
2023-02-08T20:59:06.698Z,1.59
2023-02-08T21:01:35.426Z,1.57
2023-02-08T21:04:04.447Z,1.59
2023-02-08T21:06:37.678Z,1.49
2023-02-08T21:09:12.443Z,1.43
2023-02-08T21:11:40.529Z,1.39
2023-02-08T21:14:08.440Z,1.35
2023-02-08T21:16:35.941Z,1.41
2023-02-08T21:19:03.584Z,1.35
2023-02-08T21:21:31.096Z,1.38
2023-02-08T21:24:16.988Z,1.44
2023-02-08T21:26:44.480Z,1.34
2023-02-08T21:29:12.843Z,1.33
2023-02-08T21:31:40.591Z,1.31
2023-02-08T21:34:08.016Z,1.33
2023-02-08T21:36:35.512Z,1.27
2023-02-08T21:39:04.048Z,1.26
2023-02-08T21:41:33.586Z,1.26
2023-02-08T21:44:03.892Z,1.26
2023-02-08T21:46:32.275Z,1.31
2023-02-08T21:49:18.612Z,1.25
2023-02-08T21:52:04.608Z,1.27
2023-02-08T21:54:44.742Z,1.30
2023-02-08T21:57:19.755Z,1.26
2023-02-08T21:59:49.296Z,1.23
2023-02-08T22:02:27.830Z,1.26
2023-02-08T22:05:16.076Z,1.26
2023-02-08T22:07:48.328Z,1.27
2023-02-08T22:10:19.398Z,1.22
2023-02-08T22:12:47.387Z,1.14
2023-02-08T22:15:17.621Z,1.25
2023-02-08T22:17:45.352Z,1.22
2023-02-08T22:20:14.312Z,1.20
2023-02-08T22:22:41.783Z,1.05
2023-02-08T22:25:09.391Z,1.05
2023-02-08T22:27:39.129Z,1.21
2023-02-08T22:30:11.118Z,1.23
2023-02-08T22:32:43.077Z,1.24
2023-02-08T22:35:12.004Z,1.21
2023-02-08T22:37:39.999Z,1.21
2023-02-08T22:40:08.389Z,1.25
2023-02-08T22:42:35.740Z,1.26
2023-02-08T22:45:03.484Z,1.20
2023-02-08T22:47:30.909Z,1.16
2023-02-08T22:50:01.478Z,1.11
2023-02-08T22:52:28.969Z,1.10
2023-02-08T22:54:56.613Z,1.10
2023-02-08T22:57:23.989Z,1.23
2023-02-08T22:59:51.579Z,1.25
2023-02-08T23:02:18.942Z,1.18
2023-02-08T23:04:46.297Z,1.19
2023-02-08T23:07:13.632Z,1.10
2023-02-08T23:09:41.047Z,1.20
2023-02-08T23:12:08.575Z,1.09
2023-02-08T23:14:35.980Z,1.13
2023-02-08T23:17:03.657Z,1.15
2023-02-08T23:19:31.158Z,1.10
2023-02-08T23:21:59.977Z,1.13
2023-02-08T23:24:27.845Z,1.12
2023-02-08T23:26:55.304Z,1.11
2023-02-08T23:29:22.914Z,1.15
2023-02-08T23:31:50.781Z,1.15
2023-02-08T23:34:18.527Z,1.13
2023-02-08T23:36:45.907Z,1.08
2023-02-08T23:39:13.247Z,1.04
2023-02-08T23:41:40.589Z,1.10
2023-02-08T23:44:08.017Z,1.05
2023-02-08T23:46:35.356Z,1.06
2023-02-08T23:49:02.812Z,1.08
2023-02-08T23:51:30.250Z,1.10
2023-02-08T23:53:57.757Z,1.09
2023-02-08T23:56:31.981Z,1.09
2023-02-08T23:59:00.267Z,1.07
